Map

Track Data

SID SEASON NUMBER BASIN SUBBASIN NAME ISO_TIME NATURE LAT LON WMO_WIND WMO_PRES WMO_AGENCY TRACK_TYPE DIST2LAND LANDFALL IFLAG USA_AGENCY USA_ATCF_ID USA_LAT USA_LON USA_RECORD USA_STATUS USA_WIND USA_PRES USA_SSHS USA_R34_NE USA_R34_SE USA_R34_SW USA_R34_NW USA_R50_NE USA_R50_SE USA_R50_SW USA_R50_NW USA_R64_NE USA_R64_SE USA_R64_SW USA_R64_NW USA_POCI USA_ROCI USA_RMW USA_EYE TOKYO_LAT TOKYO_LON TOKYO_GRADE TOKYO_WIND TOKYO_PRES TOKYO_R50_DIR TOKYO_R50_LONG TOKYO_R50_SHORT TOKYO_R30_DIR TOKYO_R30_LONG TOKYO_R30_SHORT TOKYO_LAND CMA_LAT CMA_LON CMA_CAT CMA_WIND CMA_PRES HKO_LAT HKO_LON HKO_CAT HKO_WIND HKO_PRES NEWDELHI_LAT NEWDELHI_LON NEWDELHI_GRADE NEWDELHI_WIND NEWDELHI_PRES NEWDELHI_CI NEWDELHI_DP NEWDELHI_POCI REUNION_LAT REUNION_LON REUNION_TYPE REUNION_WIND REUNION_PRES REUNION_TNUM REUNION_CI REUNION_RMW REUNION_R34_NE REUNION_R34_SE REUNION_R34_SW REUNION_R34_NW REUNION_R50_NE REUNION_R50_SE REUNION_R50_SW REUNION_R50_NW REUNION_R64_NE REUNION_R64_SE REUNION_R64_SW REUNION_R64_NW BOM_LAT BOM_LON BOM_TYPE BOM_WIND BOM_PRES BOM_TNUM BOM_CI BOM_RMW BOM_R34_NE BOM_R34_SE BOM_R34_SW BOM_R34_NW BOM_R50_NE BOM_R50_SE BOM_R50_SW BOM_R50_NW BOM_R64_NE BOM_R64_SE BOM_R64_SW BOM_R64_NW BOM_ROCI BOM_POCI BOM_EYE BOM_POS_METHOD BOM_PRES_METHOD NADI_LAT NADI_LON NADI_CAT NADI_WIND NADI_PRES WELLINGTON_LAT WELLINGTON_LON WELLINGTON_WIND WELLINGTON_PRES DS824_LAT DS824_LON DS824_STAGE DS824_WIND DS824_PRES TD9636_LAT TD9636_LON TD9636_STAGE TD9636_WIND TD9636_PRES TD9635_LAT TD9635_LON TD9635_WIND TD9635_PRES TD9635_ROCI NEUMANN_LAT NEUMANN_LON NEUMANN_CLASS NEUMANN_WIND NEUMANN_PRES MLC_LAT MLC_LON MLC_CLASS MLC_WIND MLC_PRES USA_GUST BOM_GUST BOM_GUST_PER REUNION_GUST REUNION_GUST_PER USA_SEAHGT USA_SEARAD_NE USA_SEARAD_SE USA_SEARAD_SW USA_SEARAD_NW STORM_SPEED STORM_DIR
1875280N24292 1875 14 NA NA NOT_NAMED 1875-10-07 00:00:00 TS 23.7000 -68.5000 70 hurdat_atl main 483 483 O_____________ hurdat_atl AL051875 23.7000 -68.5000 HU 70 1 9 342
1875280N24292 1875 14 NA NA NOT_NAMED 1875-10-07 03:00:00 TS 24.1375 -68.6572 main 519 519 P_____________ AL051875 24.1375 -68.6572 HU 70 1 8 341
1875280N24292 1875 14 NA NA NOT_NAMED 1875-10-07 06:00:00 TS 24.5000 -68.8000 70 hurdat_atl main 557 557 O_____________ hurdat_atl AL051875 24.5000 -68.8000 HU 70 1 7 339
1875280N24292 1875 14 NA NA NOT_NAMED 1875-10-07 09:00:00 TS 24.7500 -68.9151 main 573 573 P_____________ AL051875 24.7500 -68.9151 HU 75 1 5 340
1875280N24292 1875 14 NA NA NOT_NAMED 1875-10-07 12:00:00 TS 25.0000 -69.0000 80 hurdat_atl main 589 589 O_____________ hurdat_atl AL051875 25.0000 -69.0000 HU 80 1 6 349
1875280N24292 1875 14 NA NA NOT_NAMED 1875-10-07 15:00:00 TS 25.3850 -69.0427 main 622 622 P_____________ AL051875 25.3850 -69.0427 HU 80 1 8 354
1875280N24292 1875 14 NA NA NOT_NAMED 1875-10-07 18:00:00 TS 25.8000 -69.1000 80 hurdat_atl main 649 649 O_____________ hurdat_atl AL051875 25.8000 -69.1000 HU 80 1 8 347
1875280N24292 1875 14 NA NA NOT_NAMED 1875-10-07 21:00:00 TS 26.1651 -69.2498 main 679 673 P_____________ AL051875 26.1651 -69.2498 HU 85 2 8 339
1875280N24292 1875 14 NA NA NOT_NAMED 1875-10-08 00:00:00 TS 26.5000 -69.4000 90 hurdat_atl main 696 696 O_____________ hurdat_atl AL051875 26.5000 -69.4000 HU 90 2 7 342
1875280N24292 1875 14 NA NA NOT_NAMED 1875-10-08 03:00:00 TS 26.7850 -69.4726 main 719 719 P_____________ AL051875 26.7850 -69.4726 HU 90 2 6 352
1875280N24292 1875 14 NA NA NOT_NAMED 1875-10-08 06:00:00 TS 27.1000 -69.5000 90 hurdat_atl main 748 748 O_____________ hurdat_atl AL051875 27.1000 -69.5000 HU 90 2 7 357
1875280N24292 1875 14 NA NA NOT_NAMED 1875-10-08 09:00:00 TS 27.5050 -69.5223 main 788 788 P_____________ AL051875 27.5050 -69.5223 HU 90 2 9 0
1875280N24292 1875 14 NA NA NOT_NAMED 1875-10-08 12:00:00 TS 28.0000 -69.5000 90 hurdat_atl main 837 837 O_____________ hurdat_atl AL051875 28.0000 -69.5000 HU 90 2 11 5
1875280N24292 1875 14 NA NA NOT_NAMED 1875-10-08 15:00:00 TS 28.5700 -69.4225 main 902 902 P_____________ AL051875 28.5700 -69.4225 HU 90 2 12 8
1875280N24292 1875 14 NA NA NOT_NAMED 1875-10-08 18:00:00 TS 29.2000 -69.3000 90 hurdat_atl main 913 875 O_____________ hurdat_atl AL051875 29.2000 -69.3000 HU 90 2 13 9
1875280N24292 1875 14 NA NA NOT_NAMED 1875-10-08 21:00:00 TS 29.8499 -69.1869 main 875 838 P_____________ AL051875 29.8499 -69.1869 HU 85 2 13 11
1875280N24292 1875 14 NA NA NOT_NAMED 1875-10-09 00:00:00 TS 30.5000 -69.0000 80 hurdat_atl main 839 818 O_____________ hurdat_atl AL051875 30.5000 -69.0000 HU 80 1 13 19
1875280N24292 1875 14 NA NA NOT_NAMED 1875-10-09 03:00:00 TS 31.1000 -68.6873 main 818 804 P_____________ AL051875 31.1000 -68.6873 HU 80 1 13 27
1875280N24292 1875 14 NA NA NOT_NAMED 1875-10-09 06:00:00 TS 31.7000 -68.3000 80 hurdat_atl main 806 791 O_____________ hurdat_atl AL051875 31.7000 -68.3000 HU 80 1 14 28
1875280N24292 1875 14 NA NA NOT_NAMED 1875-10-09 09:00:00 TS 32.3046 -67.9358 main 799 788 P_____________ AL051875 32.3046 -67.9358 HU 80 1 15 27
1875280N24292 1875 14 NA NA NOT_NAMED 1875-10-09 12:00:00 TS 33.0000 -67.5000 80 hurdat_atl main 795 794 O_____________ hurdat_atl AL051875 33.0000 -67.5000 HU 80 1 18 29
1875280N24292 1875 14 NA NA NOT_NAMED 1875-10-09 15:00:00 TS 33.8552 -66.9300 main 810 807 P_____________ AL051875 33.8552 -66.9300 HU 80 1 21 29
1875280N24292 1875 14 NA NA NOT_NAMED 1875-10-09 18:00:00 TS 34.8000 -66.3000 80 hurdat_atl main 832 760 O_____________ hurdat_atl AL051875 34.8000 -66.3000 HU 80 1 21 28
1875280N24292 1875 14 NA NA NOT_NAMED 1875-10-09 21:00:00 TS 35.7492 -65.7278 main 764 701 P_____________ AL051875 35.7492 -65.7278 HU 75 1 21 27
1875280N24292 1875 14 NA NA NOT_NAMED 1875-10-10 00:00:00 TS 36.7000 -65.1000 70 hurdat_atl main 697 660 O_____________ hurdat_atl AL051875 36.7000 -65.1000 HU 70 1 22 30
1875280N24292 1875 14 NA NA NOT_NAMED 1875-10-10 03:00:00 TS 37.6293 -64.3587 main 660 576 P_____________ AL051875 37.6293 -64.3587 HU 70 1 22 35
1875280N24292 1875 14 NA NA NOT_NAMED 1875-10-10 06:00:00 TS 38.5000 -63.5000 70 hurdat_atl main 576 524 O_____________ hurdat_atl AL051875 38.5000 -63.5000 HU 70 1 21 41
1875280N24292 1875 14 NA NA NOT_NAMED 1875-10-10 09:00:00 TS 39.2327 -62.5981 main 528 495 P_____________ AL051875 39.2327 -62.5981 HU 70 1 22 46
1875280N24292 1875 14 NA NA NOT_NAMED 1875-10-10 12:00:00 TS 40.0000 -61.5000 70 hurdat_atl main 500 472 O_____________ hurdat_atl AL051875 40.0000 -61.5000 HU 70 1 26 48
1875280N24292 1875 14 NA NA NOT_NAMED 1875-10-10 15:00:00 TS 40.9482 -60.1041 main 475 414 P_____________ AL051875 40.9482 -60.1041 HU 70 1 30 49
1875280N24292 1875 14 NA NA NOT_NAMED 1875-10-10 18:00:00 TS 42.0000 -58.5000 70 hurdat_atl main 412 O_____________ hurdat_atl AL051875 42.0000 -58.5000 HU 70 1 32 49

About IBTrACS Database

This database is a web-friendly format of International Best Track Archive for Climate Stewardship (IBTrACS), a global best track data archive curated by NOAA dating back to 1842.

Updated: 2021-12-08